createdAt,value
2018-04-29T00:00:52.631Z,99.90
2018-04-29T00:03:20.147Z,99.90
2018-04-29T00:05:47.682Z,99.90
2018-04-29T00:08:15.200Z,99.90
2018-04-29T00:10:42.708Z,99.90
2018-04-29T00:13:10.214Z,99.90
2018-04-29T00:15:38.493Z,99.90
2018-04-29T00:18:06.788Z,99.90
2018-04-29T00:20:34.286Z,99.90
2018-04-29T00:23:01.819Z,99.90
2018-04-29T00:25:29.332Z,99.90
2018-04-29T00:27:56.857Z,99.90
2018-04-29T00:30:24.491Z,99.90
2018-04-29T00:32:52.771Z,99.90
2018-04-29T00:35:21.076Z,99.90
2018-04-29T00:37:48.580Z,99.90
2018-04-29T00:40:16.116Z,99.90
2018-04-29T00:42:43.643Z,99.90
2018-04-29T00:45:11.162Z,99.90
2018-04-29T00:47:38.700Z,99.90
2018-04-29T00:50:06.222Z,99.90
2018-04-29T00:52:34.494Z,99.90
2018-04-29T00:55:02.133Z,99.90
2018-04-29T00:57:29.647Z,99.90
2018-04-29T00:59:57.924Z,99.90
2018-04-29T01:02:26.210Z,99.90
2018-04-29T01:04:53.728Z,99.90
2018-04-29T01:07:21.240Z,99.90
2018-04-29T01:09:48.775Z,99.90
2018-04-29T01:12:16.283Z,99.90
2018-04-29T01:14:43.791Z,99.90
2018-04-29T01:17:11.299Z,99.90
2018-04-29T01:19:38.822Z,99.90
2018-04-29T01:22:06.371Z,99.90
2018-04-29T01:24:33.875Z,99.90
2018-04-29T01:27:02.170Z,99.90
2018-04-29T01:29:29.709Z,99.90
2018-04-29T01:31:57.982Z,99.90
2018-04-29T01:34:26.263Z,99.90
2018-04-29T01:36:54.550Z,99.90
2018-04-29T01:39:22.835Z,99.90
2018-04-29T01:41:51.147Z,99.90
2018-04-29T01:44:18.670Z,99.90
2018-04-29T01:46:46.952Z,99.90
2018-04-29T01:49:15.223Z,99.90
2018-04-29T01:51:42.736Z,99.90
2018-04-29T01:54:11.034Z,99.90
2018-04-29T01:56:38.545Z,99.90
2018-04-29T01:59:06.821Z,99.90
2018-04-29T02:01:35.118Z,99.90
2018-04-29T02:04:02.627Z,99.90
2018-04-29T02:06:30.145Z,99.90
2018-04-29T02:08:57.664Z,99.90
2018-04-29T02:11:25.164Z,99.90
2018-04-29T02:13:53.438Z,99.90
2018-04-29T02:16:21.724Z,99.90
2018-04-29T02:18:49.998Z,99.90
2018-04-29T02:21:18.316Z,99.90
2018-04-29T02:23:45.824Z,99.90
2018-04-29T02:26:13.336Z,99.90
2018-04-29T02:28:40.834Z,99.90
2018-04-29T02:31:08.340Z,99.90
2018-04-29T02:33:35.879Z,99.90
2018-04-29T02:36:03.430Z,99.90
2018-04-29T02:38:30.938Z,99.90
2018-04-29T02:40:58.476Z,99.90
2018-04-29T02:43:26.764Z,99.90
2018-04-29T02:45:55.058Z,99.90
2018-04-29T02:48:22.575Z,99.90
2018-04-29T02:50:50.079Z,99.90
2018-04-29T02:53:17.591Z,99.90
2018-04-29T02:55:45.100Z,99.90
2018-04-29T02:58:12.655Z,99.90
2018-04-29T03:00:40.925Z,99.90
2018-04-29T03:03:08.445Z,99.90
2018-04-29T03:05:35.973Z,99.90
2018-04-29T03:08:04.247Z,99.90
2018-04-29T03:10:32.519Z,99.90
2018-04-29T03:13:00.809Z,99.90
2018-04-29T03:15:29.090Z,99.90
2018-04-29T03:17:57.354Z,99.90
2018-04-29T03:20:24.904Z,99.90
2018-04-29T03:22:52.522Z,99.90
2018-04-29T03:25:20.022Z,99.90
2018-04-29T03:27:47.541Z,99.90
2018-04-29T03:30:15.051Z,99.90
2018-04-29T03:32:42.564Z,99.90
2018-04-29T03:35:10.090Z,99.90
2018-04-29T03:37:37.602Z,99.90
2018-04-29T03:40:05.106Z,99.90
2018-04-29T03:42:32.639Z,99.90
2018-04-29T03:45:00.155Z,99.90
2018-04-29T03:47:28.440Z,99.90
2018-04-29T03:49:56.744Z,99.90
2018-04-29T03:52:24.256Z,99.90
2018-04-29T03:54:51.774Z,99.90
2018-04-29T03:57:31.019Z,99.90
2018-04-29T04:00:10.371Z,99.90
2018-04-29T04:02:49.999Z,99.90
2018-04-29T04:05:17.428Z,99.90
2018-04-29T04:07:44.939Z,99.90
2018-04-29T04:10:12.444Z,99.90
2018-04-29T04:12:40.703Z,99.90
2018-04-29T04:15:08.232Z,99.90
2018-04-29T04:17:35.737Z,99.90
2018-04-29T04:20:04.018Z,99.90
2018-04-29T04:22:32.314Z,99.90
2018-04-29T04:25:00.600Z,99.90
2018-04-29T04:27:28.118Z,99.90
2018-04-29T04:29:55.646Z,99.90
2018-04-29T04:32:23.148Z,99.90
2018-04-29T04:34:50.655Z,99.90
2018-04-29T04:37:18.182Z,99.90
2018-04-29T04:39:45.700Z,99.90
2018-04-29T04:42:13.211Z,99.90
2018-04-29T04:44:40.728Z,99.90
2018-04-29T04:47:08.241Z,99.90
2018-04-29T04:49:35.777Z,99.90
2018-04-29T04:52:03.275Z,99.90
2018-04-29T04:54:31.552Z,99.90
2018-04-29T04:56:59.101Z,99.90
2018-04-29T04:59:26.598Z,99.90
2018-04-29T05:01:54.111Z,99.90
2018-04-29T05:04:21.652Z,99.90
2018-04-29T05:06:49.163Z,99.90
2018-04-29T05:09:16.675Z,99.90
2018-04-29T05:11:44.192Z,99.90
2018-04-29T05:14:12.575Z,99.90
2018-04-29T05:16:40.880Z,99.90
2018-04-29T05:19:08.393Z,99.90
2018-04-29T05:21:35.899Z,99.90
2018-04-29T05:24:04.175Z,99.90
2018-04-29T05:26:32.441Z,99.90
2018-04-29T05:29:00.749Z,99.90
2018-04-29T05:31:28.261Z,99.90
2018-04-29T05:33:55.772Z,99.90
2018-04-29T05:36:23.312Z,99.90
2018-04-29T05:38:50.822Z,99.90
2018-04-29T05:41:18.352Z,99.90
2018-04-29T05:43:46.664Z,99.90
2018-04-29T05:46:14.168Z,99.90
2018-04-29T05:48:41.673Z,99.90
2018-04-29T05:51:09.175Z,99.90
2018-04-29T05:53:36.691Z,99.90
2018-04-29T05:56:05.087Z,99.90
2018-04-29T05:58:32.592Z,99.90
2018-04-29T06:01:00.146Z,99.90
2018-04-29T06:03:28.440Z,99.90
2018-04-29T06:05:55.977Z,99.90
2018-04-29T06:08:23.510Z,99.90
2018-04-29T06:10:51.026Z,99.90
2018-04-29T06:13:18.586Z,99.90
2018-04-29T06:15:46.130Z,99.90
2018-04-29T06:18:13.647Z,99.90
2018-04-29T06:20:41.927Z,99.90
2018-04-29T06:23:10.224Z,99.90
2018-04-29T06:25:37.751Z,99.90
2018-04-29T06:28:05.275Z,99.90
2018-04-29T06:30:32.902Z,99.90
2018-04-29T06:33:01.203Z,99.90
2018-04-29T06:35:28.746Z,99.90
2018-04-29T06:37:57.056Z,99.90
2018-04-29T06:40:24.561Z,99.90
2018-04-29T06:42:52.075Z,99.90
2018-04-29T06:45:19.630Z,99.90
2018-04-29T06:47:47.147Z,99.90
2018-04-29T06:50:14.673Z,99.90
2018-04-29T06:52:42.231Z,99.90
2018-04-29T06:55:09.739Z,99.90
2018-04-29T06:57:37.271Z,99.90
2018-04-29T07:00:04.812Z,99.90
2018-04-29T07:02:32.315Z,99.90
2018-04-29T07:04:59.851Z,99.90
2018-04-29T07:07:27.411Z,99.90
2018-04-29T07:09:54.913Z,99.90
2018-04-29T07:12:22.671Z,99.90
2018-04-29T07:14:50.222Z,99.90
2018-04-29T07:17:17.744Z,99.90
2018-04-29T07:19:46.035Z,99.90
2018-04-29T07:22:14.356Z,99.90
2018-04-29T07:24:41.880Z,99.90
2018-04-29T07:27:10.180Z,99.90
2018-04-29T07:29:37.714Z,99.90
2018-04-29T07:32:06.008Z,99.90
2018-04-29T07:34:33.536Z,99.90
2018-04-29T07:37:01.077Z,99.90
2018-04-29T07:39:28.588Z,99.90
2018-04-29T07:41:56.886Z,99.90
2018-04-29T07:44:24.408Z,99.90
2018-04-29T07:46:51.977Z,99.90
2018-04-29T07:49:19.517Z,99.90
2018-04-29T07:51:47.026Z,99.90
2018-04-29T07:54:15.349Z,99.90
2018-04-29T07:56:42.901Z,99.90
2018-04-29T07:59:10.424Z,99.90
2018-04-29T08:01:38.709Z,99.90
2018-04-29T08:04:07.023Z,99.90
2018-04-29T08:06:34.532Z,99.90
2018-04-29T08:09:02.038Z,99.90
2018-04-29T08:11:29.559Z,99.90
2018-04-29T08:13:57.068Z,99.90
2018-04-29T08:16:24.643Z,99.90
2018-04-29T08:18:52.145Z,99.90
2018-04-29T08:21:19.722Z,99.90
2018-04-29T08:23:47.276Z,99.90
2018-04-29T08:26:14.797Z,99.90
2018-04-29T08:28:42.352Z,99.90
2018-04-29T08:31:09.862Z,99.90
2018-04-29T08:33:37.375Z,99.90
2018-04-29T08:36:04.903Z,99.90
2018-04-29T08:38:32.428Z,99.90
2018-04-29T08:40:59.961Z,99.90
2018-04-29T08:43:27.535Z,99.90
2018-04-29T08:45:55.058Z,99.90
2018-04-29T08:48:22.619Z,99.90
2018-04-29T08:50:50.183Z,99.90
2018-04-29T08:53:17.739Z,99.90
2018-04-29T08:55:45.259Z,99.90
2018-04-29T08:58:12.786Z,99.90
2018-04-29T09:00:41.085Z,99.90
2018-04-29T09:03:08.667Z,99.90
2018-04-29T09:05:36.200Z,99.90
2018-04-29T09:08:04.506Z,99.90
2018-04-29T09:10:32.105Z,99.90
2018-04-29T09:13:00.752Z,99.90
2018-04-29T09:15:28.460Z,99.90
2018-04-29T09:17:56.860Z,99.60
2018-04-29T09:20:25.798Z,99.10
2018-04-29T09:22:54.507Z,98.90
2018-04-29T09:25:22.033Z,99.90
2018-04-29T09:27:50.338Z,98.60
2018-04-29T09:30:17.859Z,98.60
2018-04-29T09:32:45.373Z,98.90
2018-04-29T09:35:12.900Z,99.50
2018-04-29T09:37:41.188Z,98.70
2018-04-29T09:40:09.479Z,97.30
2018-04-29T09:42:37.011Z,97.20
2018-04-29T09:45:04.528Z,96.80
2018-04-29T09:47:32.045Z,98.20
2018-04-29T09:50:00.330Z,96.60
2018-04-29T09:52:28.601Z,95.50
2018-04-29T09:54:56.248Z,95.50
2018-04-29T09:57:23.756Z,95.10
2018-04-29T09:59:51.278Z,94.80
2018-04-29T10:02:24.675Z,94.10
2018-04-29T10:04:52.186Z,92.30
2018-04-29T10:07:19.697Z,91.40
2018-04-29T10:09:47.203Z,90.60
2018-04-29T10:12:14.736Z,89.80
2018-04-29T10:14:42.248Z,88.90
2018-04-29T10:17:09.791Z,89.00
2018-04-29T10:19:37.309Z,88.50
2018-04-29T10:22:05.591Z,85.10
2018-04-29T10:24:33.167Z,85.00
2018-04-29T10:27:00.690Z,84.20
2018-04-29T10:29:28.209Z,86.90
2018-04-29T10:31:56.496Z,83.70
2018-04-29T10:34:24.767Z,80.50
2018-04-29T10:36:53.044Z,80.20
2018-04-29T10:39:20.564Z,80.00
2018-04-29T10:41:48.078Z,77.30
2018-04-29T10:44:16.367Z,73.80
2018-04-29T10:46:44.647Z,73.40
2018-04-29T10:49:13.052Z,72.30
2018-04-29T10:51:40.575Z,72.30
2018-04-29T10:54:08.090Z,72.20
2018-04-29T10:56:35.647Z,73.20
2018-04-29T10:59:03.173Z,70.90
2018-04-29T11:01:31.454Z,70.70
2018-04-29T11:03:59.747Z,68.10
2018-04-29T11:06:28.020Z,69.50
2018-04-29T11:08:56.310Z,67.60
2018-04-29T11:11:23.852Z,67.60
2018-04-29T11:13:51.360Z,65.00
2018-04-29T11:16:18.918Z,64.90
2018-04-29T11:18:46.453Z,65.90
2018-04-29T11:21:14.740Z,63.80
2018-04-29T11:23:43.052Z,62.60
2018-04-29T11:26:10.570Z,62.60
2018-04-29T11:28:38.860Z,59.60
2018-04-29T11:31:07.163Z,60.90
2018-04-29T11:33:34.684Z,60.00
2018-04-29T11:36:02.207Z,60.20
2018-04-29T11:38:29.728Z,61.30
2018-04-29T11:40:58.012Z,59.70
2018-04-29T11:43:26.372Z,59.80
2018-04-29T11:45:53.906Z,59.80
2018-04-29T11:48:21.431Z,59.30
2018-04-29T11:50:48.973Z,57.80
2018-04-29T11:53:17.289Z,58.60
2018-04-29T11:55:44.819Z,58.60
2018-04-29T11:58:12.356Z,57.30
2018-04-29T12:00:39.881Z,56.60
2018-04-29T12:03:07.657Z,56.20
2018-04-29T12:05:35.280Z,56.10
2018-04-29T12:08:03.570Z,58.80
2018-04-29T12:10:31.880Z,61.00
2018-04-29T12:12:59.407Z,61.00
2018-04-29T12:15:27.693Z,63.80
2018-04-29T12:17:56.029Z,63.40
2018-04-29T12:20:23.593Z,63.30
2018-04-29T12:22:51.162Z,63.20
2018-04-29T12:25:18.694Z,62.30
2018-04-29T12:27:46.317Z,63.50
2018-04-29T12:30:14.685Z,64.70
2018-04-29T12:32:42.216Z,64.50
2018-04-29T12:35:09.725Z,65.00
2018-04-29T12:37:37.283Z,66.10
2018-04-29T12:40:05.102Z,63.60
2018-04-29T12:42:32.733Z,64.60
2018-04-29T12:45:01.087Z,64.60
2018-04-29T12:47:29.431Z,64.50
2018-04-29T12:49:56.990Z,63.70
2018-04-29T12:52:24.573Z,62.70
2018-04-29T12:54:52.151Z,63.60
2018-04-29T12:57:19.695Z,65.40
2018-04-29T12:59:47.318Z,67.80
2018-04-29T13:02:15.596Z,75.50
2018-04-29T13:04:43.142Z,75.40
2018-04-29T13:07:10.692Z,75.60
2018-04-29T13:09:38.250Z,74.60
2018-04-29T13:12:05.788Z,75.70
2018-04-29T13:14:33.453Z,75.90
2018-04-29T13:17:00.974Z,76.30
2018-04-29T13:19:28.501Z,76.80
2018-04-29T13:21:56.011Z,77.50
2018-04-29T13:24:24.414Z,80.00
2018-04-29T13:26:51.922Z,79.80
2018-04-29T13:29:19.439Z,80.00
2018-04-29T13:31:46.981Z,81.00
2018-04-29T13:34:15.250Z,80.60
2018-04-29T13:36:42.958Z,80.50
2018-04-29T13:39:10.608Z,81.60
2018-04-29T13:41:38.906Z,85.20
2018-04-29T13:44:06.452Z,85.50
2018-04-29T13:46:34.820Z,92.60
2018-04-29T13:49:03.141Z,95.80
2018-04-29T13:51:30.656Z,95.50
2018-04-29T13:53:58.210Z,99.90
2018-04-29T13:56:25.752Z,99.90
2018-04-29T13:58:53.319Z,99.90
2018-04-29T14:01:20.820Z,99.90
2018-04-29T14:03:49.104Z,99.90
2018-04-29T14:06:17.384Z,99.90
2018-04-29T14:08:45.713Z,99.90
2018-04-29T14:11:13.239Z,99.90
2018-04-29T14:13:41.543Z,99.90
2018-04-29T14:16:09.173Z,99.90
2018-04-29T14:18:36.639Z,99.90
2018-04-29T14:21:04.936Z,99.90
2018-04-29T14:23:32.634Z,99.90
2018-04-29T14:26:00.149Z,99.90
2018-04-29T14:28:28.424Z,99.90
2018-04-29T14:30:56.732Z,99.90
2018-04-29T14:33:24.252Z,99.90
2018-04-29T14:35:51.762Z,99.90
2018-04-29T14:38:19.298Z,99.90
2018-04-29T14:40:47.576Z,99.90
2018-04-29T14:43:15.891Z,99.90
2018-04-29T14:45:43.400Z,99.90
2018-04-29T14:48:10.911Z,99.90
2018-04-29T14:50:38.464Z,99.90
2018-04-29T14:53:06.768Z,99.90
2018-04-29T14:55:34.459Z,99.90
2018-04-29T14:58:02.004Z,99.90
2018-04-29T15:00:29.515Z,99.90
2018-04-29T15:02:57.031Z,99.90
2018-04-29T15:05:25.989Z,99.90
2018-04-29T15:07:56.091Z,98.30
2018-04-29T15:10:24.533Z,98.20
2018-04-29T15:12:54.919Z,88.30
2018-04-29T15:15:24.948Z,82.20
2018-04-29T15:17:53.237Z,79.30
2018-04-29T15:20:23.411Z,79.20
2018-04-29T15:22:52.979Z,75.70
2018-04-29T15:25:24.844Z,75.80
2018-04-29T15:27:55.357Z,77.00
2018-04-29T15:30:23.746Z,74.40
2018-04-29T15:32:53.190Z,74.40
2018-04-29T15:35:21.138Z,73.60
2018-04-29T15:38:03.653Z,72.40
2018-04-29T15:40:33.595Z,71.10
2018-04-29T15:43:07.022Z,68.50
2018-04-29T15:45:34.554Z,68.40
2018-04-29T15:48:05.224Z,69.40
2018-04-29T15:50:37.581Z,67.50
2018-04-29T15:55:55.829Z,68.30
2018-04-29T16:01:06.250Z,67.80
2018-04-29T16:03:33.802Z,67.40
2018-04-29T16:08:50.843Z,70.40
2018-04-29T16:11:18.365Z,67.60
2018-04-29T16:13:55.426Z,69.10
2018-04-29T16:16:43.220Z,70.20
2018-04-29T16:19:23.522Z,68.60
2018-04-29T16:21:51.079Z,67.70
2018-04-29T16:24:18.599Z,70.20
2018-04-29T16:29:45.300Z,69.70
2018-04-29T16:32:12.830Z,69.50
2018-04-29T16:34:40.352Z,70.60
2018-04-29T16:37:07.866Z,69.20
2018-04-29T16:39:35.526Z,70.50
2018-04-29T16:42:03.107Z,71.30
2018-04-29T16:44:30.624Z,73.00
2018-04-29T16:46:58.242Z,73.80
2018-04-29T16:49:25.738Z,74.80
2018-04-29T16:51:53.245Z,75.50
2018-04-29T16:54:21.034Z,74.60
2018-04-29T16:56:48.869Z,74.00
2018-04-29T16:59:16.416Z,76.60
2018-04-29T17:01:43.967Z,76.20
2018-04-29T17:04:11.488Z,80.20
2018-04-29T17:06:38.999Z,78.80
2018-04-29T17:09:06.514Z,80.30
2018-04-29T17:11:34.032Z,82.10
2018-04-29T17:14:01.547Z,83.80
2018-04-29T17:16:29.117Z,82.00
2018-04-29T17:18:56.641Z,83.20
2018-04-29T17:21:24.151Z,85.40
2018-04-29T17:23:51.716Z,88.00
2018-04-29T17:26:19.227Z,88.30
2018-04-29T17:28:46.747Z,88.80
2018-04-29T17:31:14.319Z,90.60
2018-04-29T17:33:41.842Z,91.20
2018-04-29T17:36:09.351Z,90.80
2018-04-29T17:38:37.030Z,92.10
2018-04-29T17:41:04.546Z,92.30
2018-04-29T17:43:32.058Z,92.30
2018-04-29T17:45:59.618Z,92.30
2018-04-29T17:48:27.149Z,93.30
2018-04-29T17:50:54.659Z,93.90
2018-04-29T17:53:22.224Z,94.30
2018-04-29T17:55:49.748Z,95.80
2018-04-29T17:58:17.267Z,95.60
2018-04-29T18:00:44.868Z,94.90
2018-04-29T18:03:12.385Z,95.00
2018-04-29T18:05:39.921Z,94.70
2018-04-29T18:08:07.479Z,96.60
2018-04-29T18:10:34.998Z,97.20
2018-04-29T18:13:02.524Z,98.10
2018-04-29T18:15:30.063Z,98.30
2018-04-29T18:17:57.623Z,99.30
2018-04-29T18:20:25.161Z,99.70
2018-04-29T18:22:52.711Z,99.20
2018-04-29T18:25:20.281Z,98.20
2018-04-29T18:27:47.866Z,98.70
2018-04-29T18:30:15.383Z,99.00
2018-04-29T18:32:42.916Z,98.10
2018-04-29T18:35:10.486Z,97.60
2018-04-29T18:37:38.037Z,96.90
2018-04-29T18:40:05.699Z,97.30
2018-04-29T18:42:33.276Z,98.50
2018-04-29T18:45:00.834Z,97.30
2018-04-29T18:47:28.391Z,97.80
2018-04-29T18:49:55.941Z,98.20
2018-04-29T18:52:23.520Z,97.80
2018-04-29T18:54:51.052Z,97.30
2018-04-29T18:57:18.661Z,97.30
2018-04-29T18:59:46.232Z,98.00
2018-04-29T19:02:13.790Z,98.40
2018-04-29T19:04:41.382Z,98.20
2018-04-29T19:07:08.961Z,97.30
2018-04-29T19:09:36.493Z,97.80
2018-04-29T19:12:04.020Z,97.70
2018-04-29T19:14:31.572Z,97.80
2018-04-29T19:16:59.132Z,98.10
2018-04-29T19:19:26.727Z,98.00
2018-04-29T19:21:54.256Z,97.90
2018-04-29T19:24:21.855Z,98.30
2018-04-29T19:26:49.407Z,98.40
2018-04-29T19:29:17.002Z,98.40
2018-04-29T19:31:44.665Z,98.30
2018-04-29T19:34:12.104Z,98.60
2018-04-29T19:36:39.631Z,99.50
2018-04-29T19:39:07.160Z,99.40
2018-04-29T19:41:34.688Z,99.60
2018-04-29T19:44:02.230Z,99.90
2018-04-29T19:46:29.774Z,99.90
2018-04-29T19:48:57.305Z,99.90
2018-04-29T19:51:24.853Z,99.90
2018-04-29T19:53:52.437Z,99.90
2018-04-29T19:56:19.895Z,99.90
2018-04-29T19:58:47.431Z,99.90
2018-04-29T20:01:14.958Z,99.90
2018-04-29T20:03:42.478Z,99.90
2018-04-29T20:06:10.020Z,99.90
2018-04-29T20:08:37.554Z,99.90
2018-04-29T20:11:05.085Z,99.90
2018-04-29T20:13:32.646Z,99.90
2018-04-29T20:16:00.160Z,99.90
2018-04-29T20:18:27.863Z,99.90
2018-04-29T20:20:55.250Z,99.90
2018-04-29T20:23:22.785Z,99.90
2018-04-29T20:25:50.358Z,99.90
2018-04-29T20:28:17.903Z,99.90
2018-04-29T20:30:45.444Z,99.90
2018-04-29T20:33:13.006Z,99.90
2018-04-29T20:35:40.545Z,99.90
2018-04-29T20:38:08.089Z,99.90
2018-04-29T20:40:35.636Z,99.90
2018-04-29T20:43:03.167Z,99.90
2018-04-29T20:45:30.701Z,99.90
2018-04-29T20:47:58.287Z,99.90
2018-04-29T20:50:25.808Z,99.90
2018-04-29T20:52:53.349Z,99.90
2018-04-29T20:55:20.920Z,99.90
2018-04-29T20:57:48.425Z,99.90
2018-04-29T21:00:15.985Z,99.90
2018-04-29T21:02:43.515Z,99.90
2018-04-29T21:05:11.048Z,99.90
2018-04-29T21:07:38.666Z,99.90
2018-04-29T21:10:06.205Z,99.90
2018-04-29T21:12:33.778Z,99.90
2018-04-29T21:15:01.431Z,99.90
2018-04-29T21:17:28.983Z,99.90
2018-04-29T21:19:56.519Z,99.90
2018-04-29T21:22:24.085Z,99.90
2018-04-29T21:24:51.672Z,99.90
2018-04-29T21:27:19.211Z,99.90
2018-04-29T21:29:46.761Z,99.90
2018-04-29T21:32:14.323Z,99.90
2018-04-29T21:34:41.849Z,99.90
2018-04-29T21:37:09.412Z,99.90
2018-04-29T21:39:36.946Z,99.90
2018-04-29T21:42:04.456Z,99.90
2018-04-29T21:44:31.988Z,99.90
2018-04-29T21:46:59.525Z,99.90
2018-04-29T21:49:27.135Z,99.90
2018-04-29T21:51:54.646Z,99.90
2018-04-29T21:54:22.211Z,99.90
2018-04-29T21:56:49.870Z,99.90
2018-04-29T21:59:17.391Z,99.90
2018-04-29T22:01:44.947Z,99.90
2018-04-29T22:04:12.470Z,99.90
2018-04-29T22:06:40.014Z,99.90
2018-04-29T22:09:07.573Z,99.90
2018-04-29T22:11:35.088Z,99.90
2018-04-29T22:14:02.611Z,99.90
2018-04-29T22:16:30.169Z,99.90
2018-04-29T22:18:57.685Z,99.90
2018-04-29T22:21:25.202Z,99.90
2018-04-29T22:23:52.770Z,99.90
2018-04-29T22:26:20.302Z,99.90
2018-04-29T22:28:47.831Z,99.90
2018-04-29T22:31:15.354Z,99.90
2018-04-29T22:33:42.880Z,99.90
2018-04-29T22:36:11.528Z,99.90
2018-04-29T22:38:39.101Z,99.90
2018-04-29T22:41:06.633Z,99.90
2018-04-29T22:43:34.162Z,99.90
2018-04-29T22:46:01.684Z,99.90
2018-04-29T22:48:29.244Z,99.90
2018-04-29T22:50:56.774Z,99.90
2018-04-29T22:53:24.299Z,99.90
2018-04-29T22:55:51.822Z,99.90
2018-04-29T22:58:19.331Z,99.90
2018-04-29T23:00:46.880Z,99.90
2018-04-29T23:03:14.397Z,99.90
2018-04-29T23:05:41.916Z,99.90
2018-04-29T23:08:09.471Z,99.90
2018-04-29T23:10:36.995Z,99.90
2018-04-29T23:13:04.520Z,99.90
2018-04-29T23:15:32.063Z,99.90
2018-04-29T23:17:59.581Z,99.90
2018-04-29T23:20:27.101Z,99.90
2018-04-29T23:22:54.640Z,99.90
2018-04-29T23:25:22.161Z,99.90
2018-04-29T23:27:49.686Z,99.90
2018-04-29T23:30:17.223Z,99.90
2018-04-29T23:32:44.743Z,99.90
2018-04-29T23:35:12.276Z,99.90
2018-04-29T23:37:39.817Z,99.90
2018-04-29T23:40:07.326Z,99.90
2018-04-29T23:42:34.854Z,99.90
2018-04-29T23:45:02.413Z,99.90
2018-04-29T23:47:29.933Z,99.90
2018-04-29T23:49:57.466Z,99.90
2018-04-29T23:52:25.004Z,99.90
2018-04-29T23:54:52.514Z,99.90
2018-04-29T23:57:20.027Z,99.90
2018-04-29T23:59:47.556Z,99.90
